createdAt,value
2023-03-04T00:00:25.408Z,96560.22
2023-03-04T00:01:27.909Z,96551.78
2023-03-04T00:02:37.597Z,96558.59
2023-03-04T00:03:40.086Z,96554.34
2023-03-04T00:04:48.092Z,96548.41
2023-03-04T00:05:50.767Z,96555.19
2023-03-04T00:06:56.195Z,96550.09
2023-03-04T00:07:58.679Z,96546.69
2023-03-04T00:09:04.511Z,96553.44
2023-03-04T00:10:08.373Z,96555.16
2023-03-04T00:11:14.033Z,96554.25
2023-03-04T00:12:16.262Z,96558.47
2023-03-04T00:13:22.663Z,96550.00
2023-03-04T00:14:25.065Z,96546.59
2023-03-04T00:15:30.327Z,96547.41
2023-03-04T00:16:32.980Z,96559.25
2023-03-04T00:17:40.677Z,96549.94
2023-03-04T00:18:43.179Z,96548.25
2023-03-04T00:19:52.496Z,96559.22
2023-03-04T00:20:55.704Z,96553.25
2023-03-04T00:22:00.899Z,96539.72
2023-03-04T00:23:03.593Z,96544.81
2023-03-04T00:24:09.533Z,96549.88
2023-03-04T00:25:14.855Z,96542.25
2023-03-04T00:26:20.799Z,96550.69
2023-03-04T00:27:23.673Z,96559.97
2023-03-04T00:28:28.822Z,96550.66
2023-03-04T00:29:31.309Z,96546.41
2023-03-04T00:30:36.432Z,96551.50
2023-03-04T00:31:38.828Z,96548.09
2023-03-04T00:32:46.443Z,96548.94
2023-03-04T00:33:48.749Z,96550.66
2023-03-04T00:34:57.140Z,96553.16
2023-03-04T00:35:59.989Z,96546.41
2023-03-04T00:37:05.450Z,96548.09
2023-03-04T00:38:08.034Z,96548.94
2023-03-04T00:39:15.605Z,96551.50
2023-03-04T00:40:18.957Z,96542.16
2023-03-04T00:41:26.746Z,96548.06
2023-03-04T00:42:32.039Z,96545.50
2023-03-04T00:43:34.513Z,96549.69
2023-03-04T00:44:39.630Z,96547.13
2023-03-04T00:45:42.127Z,96547.16
2023-03-04T00:46:47.686Z,96548.88
2023-03-04T00:47:50.346Z,96551.47
2023-03-04T00:48:56.092Z,96555.75
2023-03-04T00:50:02.255Z,96549.88
2023-03-04T00:51:08.837Z,96553.34
2023-03-04T00:52:11.499Z,96549.97
2023-03-04T00:53:16.946Z,96555.94
2023-03-04T00:54:19.303Z,96556.78
2023-03-04T00:55:24.533Z,96545.72
2023-03-04T00:56:26.844Z,96553.31
2023-03-04T00:57:31.894Z,96554.97
2023-03-04T00:58:34.108Z,96549.91
2023-03-04T00:59:41.255Z,96546.50
2023-03-04T01:00:43.610Z,96547.34
2023-03-04T01:01:48.714Z,96553.22
2023-03-04T01:02:51.467Z,96550.66
2023-03-04T01:03:56.748Z,96541.34
2023-03-04T01:05:02.291Z,96540.50
2023-03-04T01:06:07.601Z,96534.56
2023-03-04T01:07:10.137Z,96543.00
2023-03-04T01:08:15.413Z,96536.25
2023-03-04T01:09:17.894Z,96533.69
2023-03-04T01:10:23.420Z,96531.16
2023-03-04T01:11:25.973Z,96532.81
2023-03-04T01:12:32.748Z,96532.78
2023-03-04T01:13:35.661Z,96532.72
2023-03-04T01:14:40.694Z,96533.53
2023-03-04T01:15:42.941Z,96523.41
2023-03-04T01:16:49.258Z,96522.53
2023-03-04T01:17:51.982Z,96524.28
2023-03-04T01:18:56.995Z,96524.28
2023-03-04T01:20:06.366Z,96523.44
2023-03-04T01:21:11.594Z,96526.00
2023-03-04T01:22:15.440Z,96520.91
2023-03-04T01:23:20.788Z,96523.47
2023-03-04T01:24:23.474Z,96529.41
2023-03-04T01:25:28.800Z,96523.50
2023-03-04T01:26:31.174Z,96522.66
2023-03-04T01:27:36.471Z,96521.78
2023-03-04T01:28:38.981Z,96519.25
2023-03-04T01:29:44.265Z,96521.78
2023-03-04T01:30:47.092Z,96519.22
2023-03-04T01:31:52.160Z,96518.34
2023-03-04T01:32:54.763Z,96522.56
2023-03-04T01:33:59.973Z,96511.56
2023-03-04T01:35:06.398Z,96509.03
2023-03-04T01:36:11.537Z,96507.38
2023-03-04T01:37:14.669Z,96508.22
2023-03-04T01:38:21.246Z,96510.72
2023-03-04T01:39:24.629Z,96511.63
2023-03-04T01:40:30.922Z,96510.84
2023-03-04T01:41:33.609Z,96512.56
2023-03-04T01:42:40.243Z,96505.78
2023-03-04T01:43:42.627Z,96510.88
2023-03-04T01:44:48.737Z,96505.78
2023-03-04T01:45:52.464Z,96512.53
2023-03-04T01:46:59.641Z,96509.13
2023-03-04T01:48:02.569Z,96511.66
2023-03-04T01:49:09.765Z,96511.66
2023-03-04T01:50:31.729Z,96506.59
2023-03-04T01:51:34.009Z,96507.41
2023-03-04T01:52:47.222Z,96505.69
2023-03-04T01:53:53.802Z,96509.88
2023-03-04T01:54:59.420Z,96509.00
2023-03-04T01:56:06.054Z,96511.53
2023-03-04T01:57:19.646Z,96507.31
2023-03-04T01:58:22.467Z,96513.22
2023-03-04T01:59:29.740Z,96514.03
2023-03-04T02:00:34.957Z,96512.34
2023-03-04T02:01:41.127Z,96509.81
2023-03-04T02:02:43.577Z,96513.22
2023-03-04T02:03:48.660Z,96508.13
2023-03-04T02:04:50.830Z,96513.22
2023-03-04T02:05:59.796Z,96507.28
2023-03-04T02:07:04.373Z,96511.50
2023-03-04T02:08:10.337Z,96509.78
2023-03-04T02:09:13.567Z,96516.53
2023-03-04T02:10:19.269Z,96506.34
2023-03-04T02:11:21.650Z,96508.00
2023-03-04T02:12:27.403Z,96501.22
2023-03-04T02:13:30.409Z,96503.75
2023-03-04T02:14:36.744Z,96499.53
2023-03-04T02:15:39.535Z,96509.69
2023-03-04T02:16:45.102Z,96509.72
2023-03-04T02:17:47.799Z,96508.06
2023-03-04T02:18:53.723Z,96503.00
2023-03-04T02:20:03.765Z,96505.53
2023-03-04T02:21:19.126Z,96504.66
2023-03-04T02:22:21.388Z,96507.19
2023-03-04T02:23:33.920Z,96510.59
2023-03-04T02:24:41.643Z,96511.38
2023-03-04T02:25:51.070Z,96504.63
2023-03-04T02:26:56.375Z,96509.66
2023-03-04T02:28:01.608Z,96508.84
2023-03-04T02:29:05.152Z,96504.59
2023-03-04T02:30:16.370Z,96502.91
2023-03-04T02:31:25.181Z,96502.06
2023-03-04T02:32:30.563Z,96503.72
2023-03-04T02:33:33.569Z,96507.13
2023-03-04T02:34:43.708Z,96504.53
2023-03-04T02:35:47.602Z,96512.97
2023-03-04T02:36:55.929Z,96506.16
2023-03-04T02:37:58.167Z,96505.31
2023-03-04T02:39:08.806Z,96506.94
2023-03-04T02:40:19.803Z,96510.25
2023-03-04T02:41:27.980Z,96510.22
2023-03-04T02:42:33.161Z,96505.97
2023-03-04T02:43:38.638Z,96508.50
2023-03-04T02:44:43.923Z,96503.38
2023-03-04T02:45:52.199Z,96508.34
2023-03-04T02:46:56.177Z,96510.06
2023-03-04T02:48:01.354Z,96506.66
2023-03-04T02:49:04.064Z,96504.91
2023-03-04T02:50:10.200Z,96509.16
2023-03-04T02:51:12.623Z,96513.38
2023-03-04T02:52:22.029Z,96505.78
2023-03-04T02:53:25.734Z,96506.66
2023-03-04T02:54:32.803Z,96510.91
2023-03-04T02:55:35.358Z,96503.38
2023-03-04T02:56:41.719Z,96504.19
2023-03-04T02:57:46.980Z,96505.03
2023-03-04T02:58:54.957Z,96505.06
2023-03-04T02:59:57.291Z,96501.69
2023-03-04T03:01:02.660Z,96505.09
2023-03-04T03:02:05.099Z,96507.63
2023-03-04T03:03:11.011Z,96508.47
2023-03-04T03:04:14.304Z,96505.94
2023-03-04T03:05:20.224Z,96505.09
2023-03-04T03:06:27.151Z,96513.56
2023-03-04T03:07:29.511Z,96506.75
2023-03-04T03:08:34.638Z,96507.63
2023-03-04T03:09:37.392Z,96505.00
2023-03-04T03:10:42.965Z,96511.75
2023-03-04T03:11:45.194Z,96510.88
2023-03-04T03:12:53.996Z,96505.78
2023-03-04T03:13:56.719Z,96505.72
2023-03-04T03:15:02.223Z,96509.03
2023-03-04T03:16:05.204Z,96504.78
2023-03-04T03:17:10.827Z,96508.97
2023-03-04T03:18:14.058Z,96508.06
2023-03-04T03:19:19.309Z,96506.34
2023-03-04T03:20:27.433Z,96514.81
2023-03-04T03:21:33.278Z,96512.25
2023-03-04T03:22:36.632Z,96515.66
2023-03-04T03:23:41.810Z,96518.13
2023-03-04T03:24:44.211Z,96511.41
2023-03-04T03:25:49.681Z,96513.03
2023-03-04T03:26:52.037Z,96509.66
2023-03-04T03:28:00.375Z,96513.06
2023-03-04T03:29:02.939Z,96513.88
2023-03-04T03:30:10.561Z,96513.06
2023-03-04T03:31:12.977Z,96515.56
2023-03-04T03:32:18.398Z,96517.25
2023-03-04T03:33:20.580Z,96514.66
2023-03-04T03:34:27.790Z,96515.44
2023-03-04T03:35:31.460Z,96511.97
2023-03-04T03:36:36.770Z,96507.72
2023-03-04T03:37:39.065Z,96505.97
2023-03-04T03:38:44.694Z,96512.75
2023-03-04T03:39:46.865Z,96511.81
2023-03-04T03:40:52.157Z,96505.91
2023-03-04T03:41:54.617Z,96514.34
2023-03-04T03:43:02.905Z,96512.59
2023-03-04T03:44:05.368Z,96510.03
2023-03-04T03:45:12.925Z,96509.16
2023-03-04T03:46:15.425Z,96505.75
2023-03-04T03:47:20.953Z,96507.41
2023-03-04T03:48:23.323Z,96508.19
2023-03-04T03:49:28.655Z,96504.78
2023-03-04T03:50:31.235Z,96497.19
2023-03-04T03:51:36.604Z,96503.97
2023-03-04T03:52:39.124Z,96497.16
2023-03-04T03:53:44.206Z,96501.38
2023-03-04T03:54:46.561Z,96494.66
2023-03-04T03:55:51.835Z,96500.53
2023-03-04T03:56:54.404Z,96502.16
2023-03-04T03:58:04.241Z,96495.44
2023-03-04T03:59:07.073Z,96503.91
2023-03-04T04:00:14.567Z,96496.28
2023-03-04T04:01:16.716Z,96502.16
2023-03-04T04:02:23.372Z,96501.25
2023-03-04T04:03:26.425Z,96505.44
2023-03-04T04:04:31.557Z,96515.53
2023-03-04T04:05:33.785Z,96510.47
2023-03-04T04:06:39.178Z,96511.28
2023-03-04T04:07:41.934Z,96504.56
2023-03-04T04:08:47.626Z,96511.34
2023-03-04T04:09:49.895Z,96511.31
2023-03-04T04:10:55.184Z,96505.38
2023-03-04T04:11:57.898Z,96515.41
2023-03-04T04:13:06.073Z,96506.88
2023-03-04T04:14:10.795Z,96518.66
2023-03-04T04:15:21.423Z,96512.72
2023-03-04T04:16:24.053Z,96511.78
2023-03-04T04:17:29.567Z,96518.56
2023-03-04T04:18:32.301Z,96516.84
2023-03-04T04:19:37.270Z,96510.06
2023-03-04T04:20:39.721Z,96513.41
2023-03-04T04:21:45.543Z,96513.38
2023-03-04T04:22:47.882Z,96505.75
2023-03-04T04:23:55.708Z,96520.09
2023-03-04T04:24:58.203Z,96517.50
2023-03-04T04:26:04.892Z,96511.75
2023-03-04T04:27:07.762Z,96517.59
2023-03-04T04:28:15.976Z,96509.97
2023-03-04T04:29:18.576Z,96510.78
2023-03-04T04:30:24.552Z,96512.44
2023-03-04T04:31:27.503Z,96516.72
2023-03-04T04:32:33.544Z,96516.66
2023-03-04T04:33:36.025Z,96513.25
2023-03-04T04:34:41.657Z,96517.44
2023-03-04T04:35:44.048Z,96514.94
2023-03-04T04:36:49.348Z,96518.31
2023-03-04T04:37:51.722Z,96519.09
2023-03-04T04:38:58.296Z,96515.72
2023-03-04T04:40:00.860Z,96515.66
2023-03-04T04:41:07.081Z,96519.00
2023-03-04T04:42:10.764Z,96513.03
2023-03-04T04:43:18.720Z,96517.28
2023-03-04T04:44:24.243Z,96513.06
2023-03-04T04:45:27.001Z,96511.44
2023-03-04T04:46:32.158Z,96508.19
2023-03-04T04:47:34.316Z,96510.00
2023-03-04T04:48:39.607Z,96506.88
2023-03-04T04:49:41.851Z,96508.00
2023-03-04T04:50:46.890Z,96508.19
2023-03-04T04:51:52.941Z,96509.16
2023-03-04T04:52:55.387Z,96509.16
2023-03-04T04:54:02.072Z,96500.69
2023-03-04T04:55:05.537Z,96506.72
2023-03-04T04:56:15.625Z,96505.19
2023-03-04T04:57:17.901Z,96501.00
2023-03-04T04:58:25.936Z,96503.59
2023-03-04T04:59:28.198Z,96495.16
2023-03-04T05:00:33.523Z,96496.88
2023-03-04T05:01:35.955Z,96497.00
2023-03-04T05:02:41.544Z,96505.56
2023-03-04T05:03:44.179Z,96505.56
2023-03-04T05:04:49.534Z,96504.63
2023-03-04T05:05:52.003Z,96513.84
2023-03-04T05:06:59.916Z,96511.19
2023-03-04T05:08:02.456Z,96514.44
2023-03-04T05:09:07.639Z,96512.69
2023-03-04T05:10:14.270Z,96509.47
2023-03-04T05:11:22.135Z,96514.47
2023-03-04T05:12:24.515Z,96516.28
2023-03-04T05:13:32.375Z,96511.06
2023-03-04T05:14:34.817Z,96506.78
2023-03-04T05:15:41.112Z,96515.13
2023-03-04T05:16:43.795Z,96516.75
2023-03-04T05:17:49.664Z,96521.81
2023-03-04T05:18:51.992Z,96511.78
2023-03-04T05:19:58.936Z,96516.84
2023-03-04T05:21:03.748Z,96515.16
2023-03-04T05:22:08.949Z,96515.16
2023-03-04T05:23:11.172Z,96516.84
2023-03-04T05:24:16.255Z,96517.59
2023-03-04T05:25:18.767Z,96517.56
2023-03-04T05:26:23.993Z,96520.91
2023-03-04T05:27:26.559Z,96517.47
2023-03-04T05:28:34.091Z,96518.31
2023-03-04T05:29:36.305Z,96526.66
2023-03-04T05:30:42.137Z,96519.22
2023-03-04T05:31:44.416Z,96520.03
2023-03-04T05:32:50.156Z,96517.50
2023-03-04T05:33:52.630Z,96518.44
2023-03-04T05:34:57.652Z,96510.13
2023-03-04T05:36:00.407Z,96523.66
2023-03-04T05:37:06.001Z,96513.56
2023-03-04T05:38:11.027Z,96511.03
2023-03-04T05:39:16.310Z,96516.06
2023-03-04T05:40:19.138Z,96527.00
2023-03-04T05:41:24.293Z,96520.25
2023-03-04T05:42:26.765Z,96526.19
2023-03-04T05:43:43.132Z,96521.25
2023-03-04T05:44:45.734Z,96528.09
2023-03-04T05:45:52.694Z,96531.56
2023-03-04T05:46:54.858Z,96516.50
2023-03-04T05:47:59.948Z,96521.59
2023-03-04T05:49:02.185Z,96521.78
2023-03-04T05:50:07.388Z,96526.88
2023-03-04T05:51:09.850Z,96520.22
2023-03-04T05:52:15.316Z,96516.91
2023-03-04T05:53:17.399Z,96524.53
2023-03-04T05:54:24.983Z,96533.88
2023-03-04T05:55:30.468Z,96528.84
2023-03-04T05:56:35.344Z,96526.34
2023-03-04T05:57:37.656Z,96521.28
2023-03-04T05:58:48.404Z,96521.25
2023-03-04T05:59:50.749Z,96517.09
2023-03-04T06:00:56.646Z,96518.78
2023-03-04T06:01:59.305Z,96518.81
2023-03-04T06:03:04.569Z,96516.28
2023-03-04T06:04:07.625Z,96528.16
2023-03-04T06:05:14.444Z,96517.16
2023-03-04T06:06:16.634Z,96523.91
2023-03-04T06:07:22.041Z,96522.22
2023-03-04T06:08:24.392Z,96523.06
2023-03-04T06:09:29.505Z,96528.09
2023-03-04T06:10:31.706Z,96518.75
2023-03-04T06:11:37.166Z,96531.47
2023-03-04T06:12:39.697Z,96525.47
2023-03-04T06:13:47.425Z,96525.47
2023-03-04T06:14:50.039Z,96530.59
2023-03-04T06:15:58.392Z,96533.97
2023-03-04T06:17:00.866Z,96534.81
2023-03-04T06:18:06.344Z,96537.34
2023-03-04T06:19:08.734Z,96535.69
2023-03-04T06:20:16.787Z,96534.00
2023-03-04T06:21:19.044Z,96530.63
2023-03-04T06:22:24.278Z,96535.69
2023-03-04T06:23:27.859Z,96537.44
2023-03-04T06:24:33.000Z,96539.97
2023-03-04T06:25:35.101Z,96545.88
2023-03-04T06:26:40.130Z,96546.69
2023-03-04T06:27:42.452Z,96545.06
2023-03-04T06:28:50.997Z,96540.84
2023-03-04T06:29:53.348Z,96544.28
2023-03-04T06:30:59.810Z,96548.53
2023-03-04T06:32:02.588Z,96549.41
2023-03-04T06:33:07.759Z,96550.25
2023-03-04T06:34:10.148Z,96548.59
2023-03-04T06:35:19.604Z,96556.28
2023-03-04T06:36:22.457Z,96557.25
2023-03-04T06:37:27.552Z,96558.06
2023-03-04T06:38:29.799Z,96551.31
2023-03-04T06:39:34.902Z,96560.63
2023-03-04T06:40:39.905Z,96558.94
2023-03-04T06:41:43.445Z,96563.09
2023-03-04T06:42:48.914Z,96568.19
2023-03-04T06:43:54.880Z,96562.31
2023-03-04T06:45:02.558Z,96564.91
2023-03-04T06:46:05.510Z,96567.44
2023-03-04T06:47:10.639Z,96566.63
2023-03-04T06:48:13.230Z,96563.31
2023-03-04T06:49:18.740Z,96559.13
2023-03-04T06:50:21.342Z,96559.19
2023-03-04T06:51:27.136Z,96563.47
2023-03-04T06:52:29.208Z,96570.25
2023-03-04T06:53:34.698Z,96560.94
2023-03-04T06:54:37.033Z,96578.75
2023-03-04T06:55:42.006Z,96569.50
2023-03-04T06:56:44.372Z,96566.13
2023-03-04T06:57:49.303Z,96577.13
2023-03-04T06:58:54.866Z,96577.16
2023-03-04T07:00:00.138Z,96577.16
2023-03-04T07:01:14.043Z,96572.09
2023-03-04T07:02:19.490Z,96568.69
2023-03-04T07:03:22.634Z,96568.75
2023-03-04T07:04:28.141Z,96566.22
2023-03-04T07:05:30.525Z,96570.38
2023-03-04T07:06:35.799Z,96578.03
2023-03-04T07:07:38.260Z,96575.44
2023-03-04T07:08:43.960Z,96575.50
2023-03-04T07:09:48.997Z,96575.53
2023-03-04T07:10:51.222Z,96576.41
2023-03-04T07:11:56.962Z,96576.41
2023-03-04T07:12:59.660Z,96581.53
2023-03-04T07:14:10.577Z,96577.28
2023-03-04T07:15:15.055Z,96579.84
2023-03-04T07:16:25.616Z,96575.63
2023-03-04T07:17:30.597Z,96589.16
2023-03-04T07:18:57.089Z,96589.19
2023-03-04T07:20:00.549Z,96596.84
2023-03-04T07:21:06.265Z,96590.03
2023-03-04T07:22:08.866Z,96596.00
2023-03-04T07:23:17.290Z,96591.75
2023-03-04T07:24:20.573Z,96595.16
2023-03-04T07:25:25.837Z,96597.69
2023-03-04T07:26:28.038Z,96594.34
2023-03-04T07:27:33.161Z,96598.56
2023-03-04T07:28:36.583Z,96591.84
2023-03-04T07:29:44.119Z,96596.09
2023-03-04T07:30:46.348Z,96603.63
2023-03-04T07:31:53.613Z,96600.25
2023-03-04T07:32:58.607Z,96606.19
2023-03-04T07:34:05.701Z,96606.16
2023-03-04T07:35:08.725Z,96612.09
2023-03-04T07:36:15.041Z,96604.53
2023-03-04T07:37:19.792Z,96602.00
2023-03-04T07:38:21.875Z,96605.41
2023-03-04T07:39:27.649Z,96609.63
2023-03-04T07:40:30.203Z,96600.34
2023-03-04T07:41:36.978Z,96611.31
2023-03-04T07:42:39.408Z,96602.03
2023-03-04T07:43:47.060Z,96606.28
2023-03-04T07:44:57.670Z,96611.38
2023-03-04T07:46:01.963Z,96613.94
2023-03-04T07:47:07.580Z,96609.69
2023-03-04T07:48:10.176Z,96608.91
2023-03-04T07:49:16.600Z,96614.81
2023-03-04T07:50:19.466Z,96616.53
2023-03-04T07:51:26.450Z,96616.53
2023-03-04T07:52:28.899Z,96616.53
2023-03-04T07:53:35.102Z,96614.00
2023-03-04T07:54:40.437Z,96612.28
2023-03-04T07:55:42.839Z,96615.69
2023-03-04T07:56:48.181Z,96611.44
2023-03-04T07:57:51.977Z,96619.97
2023-03-04T07:58:57.642Z,96614.84
2023-03-04T08:00:02.782Z,96614.00
2023-03-04T08:01:13.397Z,96619.09
2023-03-04T08:02:19.323Z,96620.78
2023-03-04T08:03:21.542Z,96622.47
2023-03-04T08:04:26.492Z,96619.94
2023-03-04T08:05:28.842Z,96618.25
2023-03-04T08:06:35.759Z,96620.81
2023-03-04T08:07:38.121Z,96623.34
2023-03-04T08:08:44.531Z,96619.97
2023-03-04T08:09:46.826Z,96624.25
2023-03-04T08:10:55.139Z,96623.38
2023-03-04T08:12:03.432Z,96626.81
2023-03-04T08:13:05.816Z,96628.47
2023-03-04T08:14:14.441Z,96616.66
2023-03-04T08:15:19.635Z,96616.66
2023-03-04T08:16:27.287Z,96613.25
2023-03-04T08:17:29.936Z,96620.06
2023-03-04T08:18:35.336Z,96620.06
2023-03-04T08:19:37.501Z,96631.13
2023-03-04T08:20:46.676Z,96623.50
2023-03-04T08:21:50.075Z,96623.47
2023-03-04T08:22:55.451Z,96620.09
2023-03-04T08:24:02.707Z,96618.38
2023-03-04T08:25:06.432Z,96621.78
2023-03-04T08:26:12.776Z,96620.94
2023-03-04T08:27:18.502Z,96620.09
2023-03-04T08:28:20.979Z,96621.78
2023-03-04T08:29:27.963Z,96622.59
2023-03-04T08:30:36.409Z,96630.25
2023-03-04T08:31:41.963Z,96627.69
2023-03-04T08:32:46.979Z,96629.41
2023-03-04T08:33:54.688Z,96637.91
2023-03-04T08:34:57.454Z,96631.94
2023-03-04T08:36:04.070Z,96633.66
2023-03-04T08:37:06.566Z,96631.97
2023-03-04T08:38:12.028Z,96625.19
2023-03-04T08:39:17.840Z,96632.81
2023-03-04T08:40:29.168Z,96626.03
2023-03-04T08:41:34.300Z,96629.44
2023-03-04T08:42:36.879Z,96629.44
2023-03-04T08:43:42.466Z,96634.50
2023-03-04T08:44:47.684Z,96627.72
2023-03-04T08:45:53.251Z,96643.00
2023-03-04T08:46:58.961Z,96635.38
2023-03-04T08:48:04.249Z,96635.38
2023-03-04T08:49:07.058Z,96632.00
2023-03-04T08:50:15.020Z,96635.38
2023-03-04T08:51:20.140Z,96637.09
2023-03-04T08:52:47.017Z,96638.78
2023-03-04T08:53:51.424Z,96636.25
2023-03-04T09:03:01.478Z,96648.06
2023-03-04T09:04:06.146Z,96648.81
2023-03-04T09:05:09.496Z,96645.41
2023-03-04T09:06:17.431Z,96648.81
2023-03-04T09:07:19.507Z,96654.78
2023-03-04T09:08:24.306Z,96652.22
2023-03-04T09:09:26.524Z,96657.25
2023-03-04T09:10:31.474Z,96660.72
2023-03-04T09:11:33.535Z,96652.25
2023-03-04T09:12:38.128Z,96652.25
2023-03-04T09:13:40.181Z,96648.00
2023-03-04T09:14:44.752Z,96647.16
2023-03-04T09:15:48.926Z,96657.34
2023-03-04T09:16:53.737Z,96645.47
2023-03-04T09:17:58.360Z,96647.19
2023-03-04T09:19:03.457Z,96648.06
2023-03-04T09:20:08.649Z,96648.88
2023-03-04T09:21:14.102Z,96640.41
2023-03-04T09:22:16.164Z,96651.44
2023-03-04T09:23:21.367Z,96651.47
2023-03-04T09:24:25.989Z,96643.84
2023-03-04T09:25:28.076Z,96652.34
2023-03-04T09:26:33.345Z,96643.03
2023-03-04T09:27:35.429Z,96642.16
2023-03-04T09:28:40.037Z,96645.56
2023-03-04T09:29:43.348Z,96646.41
2023-03-04T09:30:48.636Z,96640.47
2023-03-04T09:31:50.674Z,96643.00
2023-03-04T09:32:55.246Z,96643.03
2023-03-04T09:34:00.507Z,96645.59
2023-03-04T09:35:05.225Z,96637.94
2023-03-04T09:36:08.696Z,96641.31
2023-03-04T09:37:13.358Z,96632.00
2023-03-04T09:38:15.382Z,96641.34
2023-03-04T09:39:20.020Z,96640.50
2023-03-04T09:40:24.931Z,96647.28
2023-03-04T09:41:41.770Z,96635.41
2023-03-04T09:42:48.072Z,96632.00
2023-03-04T09:43:55.312Z,96641.31
2023-03-04T09:44:58.030Z,96638.78
2023-03-04T09:46:07.330Z,96642.19
2023-03-04T09:47:14.277Z,96639.63
2023-03-04T09:48:24.620Z,96642.19
2023-03-04T09:49:30.929Z,96639.63
2023-03-04T09:50:41.462Z,96642.16
2023-03-04T09:52:03.447Z,96642.16
2023-03-04T09:53:08.065Z,96646.44
2023-03-04T09:54:18.582Z,96639.63
2023-03-04T09:55:25.414Z,96644.72
2023-03-04T09:56:30.816Z,96648.97
2023-03-04T09:57:44.576Z,96638.78
2023-03-04T09:59:00.107Z,96642.19
2023-03-04T10:00:10.612Z,96654.06
2023-03-04T10:01:23.446Z,96645.56
2023-03-04T10:02:39.168Z,96654.06
2023-03-04T10:03:45.534Z,96652.34
2023-03-04T10:04:55.778Z,96649.78
2023-03-04T10:06:01.409Z,96652.34
2023-03-04T10:07:08.271Z,96648.09
2023-03-04T10:08:32.333Z,96650.66
2023-03-04T10:09:48.986Z,96650.66
2023-03-04T10:10:52.885Z,96643.84
2023-03-04T10:12:05.440Z,96645.56
2023-03-04T10:13:16.251Z,96644.72
2023-03-04T10:14:41.446Z,96646.41
2023-03-04T10:15:47.240Z,96652.38
2023-03-04T10:16:55.325Z,96638.78
2023-03-04T10:18:03.982Z,96647.28
2023-03-04T10:19:26.883Z,96637.91
2023-03-04T10:20:44.702Z,96646.44
2023-03-04T10:21:48.666Z,96643.91
2023-03-04T10:22:54.594Z,96642.19
2023-03-04T10:23:59.675Z,96641.34
2023-03-04T10:25:18.986Z,96640.50
2023-03-04T10:26:26.068Z,96633.69
2023-03-04T10:27:32.165Z,96643.88
2023-03-04T10:28:35.684Z,96639.63
2023-03-04T10:29:40.232Z,96637.03
2023-03-04T10:30:51.879Z,96640.41
2023-03-04T10:31:58.600Z,96638.72
2023-03-04T10:33:00.767Z,96640.41
2023-03-04T10:34:05.919Z,96635.28
2023-03-04T10:35:12.667Z,96629.31
2023-03-04T10:36:42.492Z,96638.75
2023-03-04T10:37:47.238Z,96639.59
2023-03-04T10:38:52.499Z,96631.91
2023-03-04T10:39:57.034Z,96631.91
2023-03-04T10:41:00.050Z,96628.38
2023-03-04T10:42:06.987Z,96630.88
2023-03-04T10:43:16.080Z,96624.84
2023-03-04T10:44:21.431Z,96626.47
2023-03-04T10:45:30.786Z,96621.22
2023-03-04T10:46:33.118Z,96623.97
2023-03-04T10:47:37.652Z,96617.94
2023-03-04T10:48:42.422Z,96618.81
2023-03-04T10:49:55.210Z,96619.69
2023-03-04T10:51:16.189Z,96621.38
2023-03-04T10:52:31.517Z,96614.38
2023-03-04T10:53:40.568Z,96611.75
2023-03-04T10:54:50.778Z,96608.34
2023-03-04T10:55:52.767Z,96604.88
2023-03-04T10:57:01.958Z,96605.69
2023-03-04T10:58:06.576Z,96604.88
2023-03-04T10:59:33.291Z,96605.59
2023-03-04T11:00:38.813Z,96613.41
2023-03-04T11:01:41.267Z,96607.50
2023-03-04T11:02:46.583Z,96610.28
2023-03-04T11:03:49.733Z,96605.06
2023-03-04T11:04:57.799Z,96603.31
2023-03-04T11:06:08.438Z,96602.47
2023-03-04T11:07:13.514Z,96604.38
2023-03-04T11:08:22.946Z,96612.91
2023-03-04T11:09:30.600Z,96607.00
2023-03-04T11:10:43.529Z,96606.16
2023-03-04T11:11:46.149Z,96603.56
2023-03-04T11:12:58.201Z,96602.63
2023-03-04T11:14:03.844Z,96601.84
2023-03-04T11:15:20.903Z,96604.28
2023-03-04T11:16:26.125Z,96600.03
2023-03-04T11:17:32.171Z,96597.75
2023-03-04T11:18:43.739Z,96597.66
2023-03-04T11:19:49.994Z,96606.25
2023-03-04T11:20:52.881Z,96602.03
2023-03-04T11:21:59.344Z,96596.00
2023-03-04T11:23:05.401Z,96602.78
2023-03-04T11:24:28.401Z,96601.16
2023-03-04T11:25:34.173Z,96611.41
2023-03-04T11:26:43.464Z,96603.81
2023-03-04T11:27:51.556Z,96603.78
2023-03-04T11:28:58.572Z,96604.53
2023-03-04T11:30:16.050Z,96597.72
2023-03-04T11:31:23.685Z,96603.75
2023-03-04T11:32:32.742Z,96602.78
2023-03-04T11:33:43.186Z,96597.59
2023-03-04T11:34:54.510Z,96596.81
2023-03-04T11:36:12.391Z,96595.94
2023-03-04T11:37:22.319Z,96592.47
2023-03-04T11:38:32.030Z,96592.47
2023-03-04T11:39:43.988Z,96595.16
2023-03-04T11:40:50.267Z,96595.25
2023-03-04T11:42:01.630Z,96592.72
2023-03-04T11:43:07.965Z,96593.53
2023-03-04T11:44:15.843Z,96595.19
2023-03-04T11:45:30.481Z,96593.59
2023-03-04T11:47:03.970Z,96588.34
2023-03-04T11:48:14.022Z,96586.59
2023-03-04T11:49:54.308Z,96579.66
2023-03-04T11:51:01.960Z,96573.59
2023-03-04T11:52:12.461Z,96569.25
2023-03-04T11:53:36.311Z,96572.59
2023-03-04T11:54:51.598Z,96563.38
2023-03-04T11:56:13.617Z,96571.94
2023-03-04T11:57:34.049Z,96571.13
2023-03-04T11:58:50.582Z,96565.88
2023-03-04T12:00:18.670Z,96576.06
2023-03-04T12:01:31.834Z,96579.66
2023-03-04T12:02:46.309Z,96577.19
2023-03-04T12:04:07.810Z,96573.78
2023-03-04T12:05:34.383Z,96574.88
2023-03-04T12:06:49.550Z,96577.34
2023-03-04T12:08:20.949Z,96570.56
2023-03-04T12:09:41.907Z,96581.69
2023-03-04T12:10:58.153Z,96571.47
2023-03-04T12:12:12.422Z,96569.66
2023-03-04T12:13:58.311Z,96563.81
2023-03-04T12:15:14.056Z,96562.06
2023-03-04T12:16:31.323Z,96557.75
2023-03-04T12:17:53.944Z,96554.31
2023-03-04T12:19:14.598Z,96546.63
2023-03-04T12:20:57.327Z,96555.19
2023-03-04T12:22:17.099Z,96551.66
2023-03-04T12:23:41.723Z,96543.06
2023-03-04T12:25:02.666Z,96541.41
2023-03-04T12:26:20.021Z,96538.84
2023-03-04T12:27:32.356Z,96536.19
2023-03-04T12:28:52.202Z,96539.44
2023-03-04T12:29:59.831Z,96532.78
2023-03-04T12:31:39.656Z,96534.44
2023-03-04T12:32:47.748Z,96530.97
2023-03-04T12:34:03.303Z,96532.53
2023-03-04T12:35:31.460Z,96527.56
2023-03-04T12:36:40.684Z,96524.31
2023-03-04T12:37:59.744Z,96525.94
2023-03-04T12:39:16.190Z,96516.44
2023-03-04T12:40:31.325Z,96519.81
2023-03-04T12:41:50.300Z,96508.56
2023-03-04T12:43:10.711Z,96527.44
2023-03-04T12:44:17.073Z,96517.22
2023-03-04T12:45:28.187Z,96512.19
2023-03-04T12:46:45.655Z,96512.94
2023-03-04T12:47:57.740Z,96516.59
2023-03-04T12:49:35.703Z,96509.81
2023-03-04T12:50:42.804Z,96508.03
2023-03-04T12:51:56.589Z,96504.63
2023-03-04T12:53:05.625Z,96502.00
2023-03-04T12:54:26.087Z,96507.88
2023-03-04T12:55:39.349Z,96506.91
2023-03-04T12:56:50.534Z,96494.88
2023-03-04T12:57:58.321Z,96509.75
2023-03-04T12:59:00.913Z,96498.66
2023-03-04T13:00:21.262Z,96507.13
2023-03-04T13:01:27.049Z,96501.09
2023-03-04T13:02:46.352Z,96499.25
2023-03-04T13:03:59.948Z,96505.41
2023-03-04T13:05:16.325Z,96497.88
2023-03-04T13:06:37.082Z,96500.44
2023-03-04T13:07:49.385Z,96498.56
2023-03-04T13:09:02.394Z,96498.50
2023-03-04T13:10:10.297Z,96493.47
2023-03-04T13:11:50.444Z,96499.53
2023-03-04T13:12:59.502Z,96496.22
2023-03-04T13:14:02.830Z,96489.22